Time;durP1;ratioP1;P1;durP2;ratioP2;P2;SDS_P1;SDS_P2;PMS_P1;PMS_P2;Temp;Humidity;BMP_temperature;BMP_pressure;BME280_temperature;BME280_humidity;BME280_pressure;Samples;Min_cycle;Max_cycle;Signal;HPM_P1;HPM_P2
2022/10/23 00:01:49;;;;;;;6.20;2.93;;;15.70;99.90;;;;;;6038357;23;20756;-85
2022/10/23 00:04:27;;;;;;;7.60;2.93;;;15.50;99.90;;;;;;6037574;23;20421;-83
2022/10/23 00:06:56;;;;;;;6.33;2.80;;;15.60;99.90;;;;;;6060398;23;20814;-83
2022/10/23 00:10:17;;;;;;;5.40;3.03;;;15.60;99.90;;;;;;6057769;23;20434;-82
2022/10/23 00:12:52;;;;;;;6.10;3.40;;;15.60;99.90;;;;;;6045001;23;20456;-86
2022/10/23 00:15:26;;;;;;;5.70;3.20;;;15.50;99.90;;;;;;6061373;23;20797;-84
2022/10/23 00:18:09;;;;;;;3.67;2.50;;;15.50;99.90;;;;;;6049928;23;21064;-84
2022/10/23 00:21:29;;;;;;;4.10;2.50;;;15.50;99.90;;;;;;6058882;23;20425;-86
2022/10/23 00:24:16;;;;;;;8.50;2.50;;;15.40;99.90;;;;;;6067123;23;20417;-81
2022/10/23 00:27:11;;;;;;;3.93;2.30;;;15.40;99.90;;;;;;6036214;23;20477;-84
2022/10/23 00:29:53;;;;;;;4.10;2.70;;;15.30;99.90;;;;;;6060793;23;20413;-85
2022/10/23 00:32:51;;;;;;;5.63;3.47;;;15.30;99.90;;;;;;6059789;23;20409;-85
2022/10/23 00:35:27;;;;;;;5.60;3.00;;;15.30;99.90;;;;;;6118318;23;20504;-85
2022/10/23 00:38:12;;;;;;;5.97;2.57;;;15.40;99.90;;;;;;6187134;23;20437;-85
2022/10/23 00:41:03;;;;;;;4.83;2.97;;;15.40;99.90;;;;;;6242086;23;20412;-86
2022/10/23 00:44:13;;;;;;;3.83;3.00;;;15.30;99.90;;;;;;6214741;23;20450;-83
2022/10/23 00:46:50;;;;;;;7.33;3.07;;;15.20;99.90;;;;;;6210703;23;20474;-84
2022/10/23 00:50:18;;;;;;;;;;;;;;;;;;;;;
2022/10/23 00:54:00;;;;;;;5.63;3.10;;;15.20;99.90;;;;;;6240681;23;20922;-84
2022/10/23 00:56:54;;;;;;;6.00;3.07;;;15.20;99.90;;;;;;6240779;23;20411;-83
2022/10/23 00:59:40;;;;;;;2.83;2.57;;;15.20;99.90;;;;;;6218236;23;20424;-82
2022/10/23 01:02:29;;;;;;;8.50;3.90;;;15.20;99.90;;;;;;6190758;23;20416;-83
2022/10/23 01:05:24;;;;;;;5.93;3.60;;;15.40;99.90;;;;;;6216733;23;20510;-84
2022/10/23 01:08:04;;;;;;;8.13;3.13;;;15.40;99.90;;;;;;6213042;23;20440;-85
2022/10/23 01:10:53;;;;;;;4.30;2.80;;;15.50;99.90;;;;;;6212243;23;20419;-82
2022/10/23 01:14:05;;;;;;;3.80;2.83;;;15.40;99.90;;;;;;6212385;23;20448;-82
2022/10/23 01:16:59;;;;;;;5.27;3.33;;;15.50;99.90;;;;;;6213672;23;20475;-84
2022/10/23 01:20:22;;;;;;;10.77;3.77;;;15.40;99.90;;;;;;6215304;23;20547;-85
2022/10/23 01:23:15;;;;;;;4.50;3.23;;;15.40;99.90;;;;;;6216775;23;20412;-85
2022/10/23 01:26:39;;;;;;;3.77;2.60;;;15.30;99.90;;;;;;6215784;23;21239;-84
2022/10/23 01:29:44;;;;;;;6.57;3.53;;;15.30;99.90;;;;;;6210323;23;20562;-84
2022/10/23 01:32:50;;;;;;;7.20;3.00;;;15.30;99.90;;;;;;6213776;23;21060;-84
2022/10/23 01:35:37;;;;;;;8.17;4.00;;;15.40;99.90;;;;;;6063974;23;20417;-84
2022/10/23 01:39:05;;;;;;;3.80;2.70;;;15.20;99.90;;;;;;6214316;23;20439;-84
2022/10/23 01:42:16;;;;;;;5.30;3.23;;;15.30;99.90;;;;;;6190689;23;20419;-85
2022/10/23 01:46:01;;;;;;;;;;;;;;;;;;;;;
2022/10/23 01:49:04;;;;;;;4.70;3.33;;;15.20;99.90;;;;;;6212037;23;20553;-84
2022/10/23 01:52:06;;;;;;;8.33;3.13;;;15.20;99.90;;;;;;6200851;23;20511;-85
2022/10/23 01:55:00;;;;;;;;;;;;;;;;;;;;;
2022/10/23 01:57:49;;;;;;;9.40;3.03;;;15.20;99.90;;;;;;6241724;23;20423;-84
2022/10/23 02:00:21;;;;;;;5.60;3.33;;;15.10;99.90;;;;;;6190644;23;20412;-85
2022/10/23 02:03:30;;;;;;;6.23;3.63;;;15.10;99.90;;;;;;6237437;23;20910;-84
2022/10/23 02:06:20;;;;;;;5.40;3.07;;;14.90;99.90;;;;;;6213422;23;20458;-83
2022/10/23 02:08:59;;;;;;;6.60;3.57;;;15.10;99.90;;;;;;6215016;23;20491;-86
2022/10/23 02:11:32;;;;;;;5.60;3.20;;;15.00;99.90;;;;;;6209242;23;20440;-82
2022/10/23 02:14:50;;;;;;;6.80;3.90;;;15.10;99.90;;;;;;6207174;23;20522;-83
2022/10/23 02:17:48;;;;;;;4.90;2.90;;;15.00;99.90;;;;;;6136704;23;20479;-82
2022/10/23 02:20:49;;;;;;;4.87;2.67;;;15.10;99.90;;;;;;6183298;23;20413;-83
2022/10/23 02:23:38;;;;;;;6.33;3.03;;;15.10;99.90;;;;;;6203300;23;20423;-83
2022/10/23 02:26:53;;;;;;;5.73;2.87;;;15.10;99.90;;;;;;6206685;23;20444;-84
2022/10/23 02:30:26;;;;;;;2.83;2.50;;;15.00;99.90;;;;;;6238179;22;20513;-83
2022/10/23 02:33:29;;;;;;;6.60;2.97;;;14.90;99.90;;;;;;6115670;23;20411;-84
2022/10/23 02:36:18;;;;;;;6.63;2.80;;;14.90;99.90;;;;;;6116304;23;21048;-83
2022/10/23 02:39:14;;;;;;;3.70;2.60;;;14.80;99.90;;;;;;6116698;23;20530;-84
2022/10/23 02:42:14;;;;;;;5.20;2.70;;;14.90;99.90;;;;;;6117560;23;20412;-83
2022/10/23 02:48:43;;;;;;;7.93;3.00;;;15.20;99.90;;;;;;6116255;23;20439;-81
2022/10/23 02:51:54;;;;;;;4.03;2.53;;;15.30;99.90;;;;;;6122931;23;20400;-84
2022/10/23 02:55:14;;;;;;;6.43;2.80;;;15.30;99.90;;;;;;6114086;23;20443;-85
2022/10/23 02:58:28;;;;;;;7.20;3.03;;;15.30;99.90;;;;;;6112324;23;20443;-82
2022/10/23 03:01:29;;;;;;;2.90;2.47;;;15.30;99.90;;;;;;6011815;23;20409;-83
2022/10/23 03:04:34;;;;;;;5.50;2.97;;;15.30;99.90;;;;;;6009060;23;20413;-84
2022/10/23 03:07:40;;;;;;;5.33;2.50;;;15.10;99.90;;;;;;6033953;23;20422;-84
2022/10/23 03:10:56;;;;;;;8.13;2.43;;;15.10;99.90;;;;;;6136859;23;20466;-82
2022/10/23 03:13:43;;;;;;;8.50;2.37;;;15.00;99.90;;;;;;6135781;23;20518;-82
2022/10/23 03:16:47;;;;;;;8.33;2.50;;;15.00;99.90;;;;;;6123832;23;20418;-84
2022/10/23 03:19:48;;;;;;;4.20;3.00;;;15.20;99.90;;;;;;6139158;23;20591;-83
2022/10/23 03:22:49;;;;;;;7.67;2.83;;;15.20;99.90;;;;;;6127080;23;20489;-84
2022/10/23 03:25:42;;;;;;;3.77;2.33;;;15.20;99.90;;;;;;6123587;23;20414;-83
2022/10/23 03:31:56;;;;;;;3.10;2.43;;;15.20;99.90;;;;;;6141932;23;20442;-84
2022/10/23 03:34:33;;;;;;;3.77;3.00;;;15.10;99.90;;;;;;6122176;23;20456;-84
2022/10/23 03:37:27;;;;;;;6.90;3.03;;;15.10;99.90;;;;;;6121312;23;20411;-84
2022/10/23 03:40:25;;;;;;;4.50;3.27;;;15.00;99.90;;;;;;6216693;23;20435;-85
2022/10/23 03:43:18;;;;;;;3.97;2.20;;;15.10;99.90;;;;;;6214560;23;20412;-84
2022/10/23 03:46:12;;;;;;;3.57;2.67;;;15.00;99.90;;;;;;6212961;23;21005;-84
2022/10/23 03:49:15;;;;;;;2.57;2.10;;;14.90;99.90;;;;;;6182880;23;20461;-83
2022/10/23 03:51:54;;;;;;;3.70;2.63;;;14.90;99.90;;;;;;6176847;23;20417;-83
2022/10/23 03:54:53;;;;;;;4.40;2.00;;;14.90;99.90;;;;;;6177733;23;20437;-83
2022/10/23 03:57:27;;;;;;;6.90;2.20;;;15.20;99.90;;;;;;6151103;23;20425;-83
2022/10/23 04:00:21;;;;;;;5.73;2.60;;;15.10;99.90;;;;;;6177973;23;20434;-83
2022/10/23 04:03:27;;;;;;;6.50;2.53;;;15.00;99.90;;;;;;6196593;23;20397;-84
2022/10/23 04:06:43;;;;;;;2.37;2.17;;;15.00;99.90;;;;;;6086914;23;20459;-83
2022/10/23 04:10:00;;;;;;;4.50;3.07;;;15.10;99.90;;;;;;6158463;23;20473;-84
2022/10/23 04:12:49;;;;;;;3.70;2.30;;;15.10;99.90;;;;;;6167249;23;20402;-84
2022/10/23 04:15:52;;;;;;;4.97;2.50;;;14.90;99.90;;;;;;6095770;23;20917;-82
2022/10/23 04:19:21;;;;;;;3.70;2.30;;;15.20;99.90;;;;;;6142758;23;20805;-83
2022/10/23 04:22:15;;;;;;;2.03;1.83;;;15.30;99.90;;;;;;6216141;23;20953;-82
2022/10/23 04:25:04;;;;;;;2.60;2.40;;;15.30;99.90;;;;;;6242389;23;20435;-85
2022/10/23 04:28:06;;;;;;;3.90;2.47;;;15.30;99.90;;;;;;6220056;23;20454;-84
2022/10/23 04:31:12;;;;;;;3.07;2.40;;;15.40;99.90;;;;;;6216914;23;20760;-83
2022/10/23 04:40:28;;;;;;;8.77;4.00;;;15.00;99.90;;;;;;6238280;23;20418;-83
2022/10/23 04:43:43;;;;;;;3.20;2.47;;;15.00;99.90;;;;;;6142295;23;20394;-83
2022/10/23 04:47:00;;;;;;;;;;;;;;;;;;;;;
2022/10/23 04:54:05;;;;;;;2.97;2.47;;;15.00;99.90;;;;;;6237998;23;20388;-84
2022/10/23 05:00:28;;;;;;;2.63;2.43;;;15.20;99.90;;;;;;6241928;23;20423;-84
2022/10/23 05:03:35;;;;;;;3.13;2.00;;;15.30;99.90;;;;;;6237017;23;20487;-84
2022/10/23 05:06:27;;;;;;;4.87;1.93;;;15.30;99.90;;;;;;6230265;23;20396;-84
2022/10/23 05:09:08;;;;;;;2.77;2.30;;;15.20;99.90;;;;;;6228681;23;20446;-83
2022/10/23 05:11:51;;;;;;;2.43;1.70;;;15.10;99.90;;;;;;6224081;23;20414;-80
2022/10/23 05:14:37;;;;;;;4.60;2.97;;;15.10;99.90;;;;;;6226482;23;20446;-83
2022/10/23 05:17:54;;;;;;;2.80;1.70;;;14.90;99.90;;;;;;6227212;23;20408;-84
2022/10/23 05:21:06;;;;;;;5.10;2.40;;;14.80;99.90;;;;;;6218985;23;20803;-86
2022/10/23 05:23:54;;;;;;;2.97;2.13;;;14.90;99.90;;;;;;6219404;23;20590;-84
2022/10/23 05:27:04;;;;;;;;;;;;;;;;;;;;;
2022/10/23 05:30:09;;;;;;;7.00;1.97;;;15.30;99.90;;;;;;6263158;22;20439;-85
2022/10/23 05:33:43;;;;;;;4.90;2.00;;;15.20;99.90;;;;;;6221218;23;20411;-83
2022/10/23 05:37:12;;;;;;;4.10;2.20;;;15.30;99.90;;;;;;6217545;23;20435;-85
2022/10/23 05:40:36;;;;;;;3.23;2.20;;;15.20;99.90;;;;;;6225065;22;20502;-86
2022/10/23 05:43:40;;;;;;;2.73;2.10;;;15.20;99.90;;;;;;6219698;23;20422;-85
2022/10/23 05:46:49;;;;;;;3.23;2.13;;;15.30;99.90;;;;;;6187052;23;20416;-82
2022/10/23 05:49:52;;;;;;;5.20;2.03;;;15.20;99.90;;;;;;6176858;23;20483;-84
2022/10/23 05:55:40;;;;;;;4.00;2.90;;;15.30;99.90;;;;;;6240673;23;20505;-84
2022/10/23 05:58:22;;;;;;;6.90;2.60;;;15.40;99.90;;;;;;6207832;23;20442;-84
2022/10/23 06:01:03;;;;;;;2.23;2.00;;;15.30;99.90;;;;;;6208261;23;20425;-84
2022/10/23 06:07:41;;;;;;;3.67;2.17;;;15.20;99.90;;;;;;6150320;23;20451;-84
2022/10/23 06:10:35;;;;;;;3.37;2.47;;;15.30;99.90;;;;;;6185189;23;20885;-83
2022/10/23 06:17:24;;;;;;;2.93;2.17;;;15.20;99.90;;;;;;6208830;23;20381;-84
2022/10/23 06:20:49;;;;;;;;;;;;;;;;;;;;;
2022/10/23 06:23:45;;;;;;;3.93;2.40;;;15.00;99.90;;;;;;6200261;23;20419;-83
2022/10/23 06:26:34;;;;;;;6.30;2.10;;;15.00;99.90;;;;;;6208656;23;20412;-84
2022/10/23 06:29:56;;;;;;;6.37;1.90;;;15.10;99.90;;;;;;6206674;23;20440;-84
2022/10/23 06:33:06;;;;;;;2.83;2.00;;;15.20;99.90;;;;;;6207978;23;20414;-83
2022/10/23 06:39:27;;;;;;;2.33;2.13;;;15.40;99.90;;;;;;6181722;23;20432;-82
2022/10/23 06:42:04;;;;;;;4.50;2.30;;;15.40;99.90;;;;;;6209371;23;20438;-84
2022/10/23 06:44:47;;;;;;;3.90;2.17;;;15.40;99.90;;;;;;6210107;23;20994;-84
2022/10/23 06:55:07;;;;;;;;;;;;;;;;;;;;;
2022/10/23 06:57:57;;;;;;;3.33;1.80;;;15.60;99.90;;;;;;6245708;23;20816;-85
2022/10/23 07:00:43;;;;;;;3.20;2.13;;;15.70;99.90;;;;;;6232703;23;20430;-86
2022/10/23 07:03:34;;;;;;;2.33;2.10;;;15.70;99.90;;;;;;6232342;22;20416;-86
2022/10/23 07:06:39;;;;;;;2.33;2.13;;;15.70;99.90;;;;;;6238282;22;20409;-86
2022/10/23 07:09:38;;;;;;;4.30;2.70;;;15.60;99.90;;;;;;6258566;22;20420;-86
2022/10/23 07:12:15;;;;;;;4.07;1.90;;;15.70;99.90;;;;;;6238859;22;20404;-85
2022/10/23 07:15:00;;;;;;;5.67;2.20;;;15.60;99.90;;;;;;6240240;23;20455;-86
2022/10/23 07:24:37;;;;;;;2.53;2.00;;;15.80;99.90;;;;;;6228083;23;20736;-83
2022/10/23 07:27:28;;;;;;;3.37;1.83;;;15.80;99.90;;;;;;6224642;23;20411;-83
2022/10/23 07:30:09;;;;;;;3.33;2.33;;;15.90;99.90;;;;;;6215786;23;20426;-83
2022/10/23 07:32:53;;;;;;;4.87;2.10;;;16.10;99.90;;;;;;6218993;23;20404;-84
2022/10/23 07:35:56;;;;;;;;;;;;;;;;;;;;;
2022/10/23 07:38:36;;;;;;;6.13;2.20;;;16.20;99.90;;;;;;6246665;23;20436;-82
2022/10/23 07:41:11;;;;;;;3.20;2.40;;;16.30;99.90;;;;;;6263705;23;20398;-85
2022/10/23 07:43:57;;;;;;;3.87;2.37;;;16.40;99.90;;;;;;6234925;23;20427;-85
2022/10/23 07:46:56;;;;;;;4.07;2.17;;;16.40;99.90;;;;;;6226785;23;20439;-84
2022/10/23 07:49:45;;;;;;;4.20;1.93;;;16.30;99.90;;;;;;6220768;23;20440;-85
2022/10/23 07:52:20;;;;;;;3.60;2.07;;;16.40;99.90;;;;;;6195802;23;20419;-83
2022/10/23 07:55:05;;;;;;;4.90;2.23;;;16.30;99.90;;;;;;6219272;23;20465;-83
2022/10/23 07:57:49;;;;;;;9.80;2.40;;;16.30;99.90;;;;;;6220242;23;20401;-84
2022/10/23 08:00:23;;;;;;;3.27;2.20;;;16.30;99.90;;;;;;6221460;23;20453;-84
2022/10/23 08:03:12;;;;;;;4.03;1.80;;;16.30;99.90;;;;;;6239259;22;20411;-85
2022/10/23 08:06:11;;;;;;;2.80;1.90;;;16.30;99.90;;;;;;6240657;22;20380;-86
2022/10/23 08:09:27;;;;;;;2.53;2.33;;;16.30;99.90;;;;;;6225401;23;20436;-84
2022/10/23 08:19:36;;;;;;;3.90;1.93;;;16.50;99.90;;;;;;6258186;22;20557;-83
2022/10/23 08:22:45;;;;;;;4.70;2.63;;;16.50;99.90;;;;;;6096173;23;20423;-85
2022/10/23 08:25:46;;;;;;;3.10;2.20;;;16.50;99.90;;;;;;6094380;23;20458;-84
2022/10/23 08:28:35;;;;;;;3.63;2.27;;;16.50;99.90;;;;;;6055248;23;20443;-86
2022/10/23 08:31:44;;;;;;;2.57;2.37;;;16.70;99.90;;;;;;6107350;23;20419;-84
2022/10/23 08:34:53;;;;;;;5.30;2.60;;;16.70;99.90;;;;;;6100937;23;21009;-83
2022/10/23 08:37:37;;;;;;;5.37;2.10;;;16.60;99.90;;;;;;6098778;23;20413;-83
2022/10/23 08:40:30;;;;;;;3.13;2.53;;;16.80;99.90;;;;;;6164622;23;20415;-85
2022/10/23 08:43:54;;;;;;;2.50;2.07;;;16.80;99.90;;;;;;6210624;23;20729;-82
2022/10/23 08:47:17;;;;;;;2.73;1.60;;;17.20;99.90;;;;;;6227585;23;20404;-83
2022/10/23 08:50:32;;;;;;;2.30;1.87;;;17.30;99.90;;;;;;6244087;23;20499;-85
2022/10/23 08:54:19;;;;;;;3.80;2.10;;;17.30;99.90;;;;;;6178732;23;20412;-85
2022/10/23 08:57:45;;;;;;;2.83;1.87;;;17.30;99.90;;;;;;6034358;23;20440;-84
2022/10/23 09:00:53;;;;;;;;;;;;;;;;;;;;;
2022/10/23 09:04:08;;;;;;;2.07;1.77;;;17.70;99.90;;;;;;6212891;23;20423;-85
2022/10/23 09:07:28;;;;;;;5.63;1.80;;;17.60;99.90;;;;;;6214688;23;20442;-85
2022/10/23 09:18:27;;;;;;;2.30;1.90;;;17.80;99.90;;;;;;6117411;23;20860;-86
2022/10/23 09:25:38;;;;;;;2.50;1.90;;;18.10;99.90;;;;;;6072120;23;20410;-85
2022/10/23 09:29:36;;;;;;;5.57;1.90;;;18.20;99.90;;;;;;6133904;23;20428;-83
2022/10/23 09:32:49;;;;;;;4.53;1.90;;;18.30;99.90;;;;;;6150813;23;20415;-84
2022/10/23 09:36:14;;;;;;;2.90;1.90;;;18.40;99.90;;;;;;6236754;23;20458;-83
2022/10/23 09:39:55;;;;;;;2.63;1.70;;;18.80;99.90;;;;;;6210318;23;20423;-85
2022/10/23 09:43:02;;;;;;;3.67;2.03;;;19.10;99.30;;;;;;6067091;23;20408;-83
2022/10/23 09:46:10;;;;;;;2.67;1.67;;;19.40;99.30;;;;;;6114059;23;20426;-84
2022/10/23 09:49:07;;;;;;;2.30;1.93;;;19.90;98.00;;;;;;6188498;23;20439;-85
2022/10/23 09:52:31;;;;;;;;;;;;;;;;;;;;;
2022/10/23 09:56:06;;;;;;;4.70;2.20;;;19.40;98.60;;;;;;6240876;23;20458;-85
2022/10/23 10:06:48;;;;;;;2.67;2.00;;;19.20;99.80;;;;;;6230338;23;20396;-86
2022/10/23 10:18:13;;;;;;;;;;;;;;;;;;;;;
2022/10/23 10:25:03;;;;;;;2.80;2.00;;;19.20;99.90;;;;;;6184563;23;20393;-85
2022/10/23 10:28:53;;;;;;;2.13;1.87;;;19.10;99.90;;;;;;6161927;23;21280;-85
2022/10/23 10:36:48;;;;;;;;;;;;;;;;;;;;;
2022/10/23 10:40:19;;;;;;;3.87;1.53;;;18.80;99.90;;;;;;5958381;23;20408;-85
2022/10/23 10:43:24;;;;;;;1.73;1.60;;;18.80;99.90;;;;;;6140500;23;20468;-88
2022/10/23 10:51:03;;;;;;;1.87;1.60;;;18.90;99.50;;;;;;6062938;23;20423;-82
2022/10/23 10:54:32;;;;;;;;;;;;;;;;;;;;;
2022/10/23 11:01:25;;;;;;;;;;;;;;;;;;;;;
2022/10/23 11:16:23;;;;;;;;;;;;;;;;;;;;;
2022/10/23 11:27:49;;;;;;;2.33;1.87;;;18.80;99.90;;;;;;6051533;23;20381;-86
2022/10/23 11:50:46;;;;;;;3.30;2.00;;;18.70;99.90;;;;;;5991151;23;20438;-86
2022/10/23 12:52:09;;;;;;;2.77;2.00;;;19.70;98.60;;;;;;6164762;23;20456;-85
2022/10/23 13:07:17;;;;;;;2.40;1.60;;;19.70;98.90;;;;;;6097810;23;20760;-84
2022/10/23 13:11:03;;;;;;;;;;;;;;;;;;;;;
2022/10/23 13:14:50;;;;;;;3.80;2.30;;;19.40;99.40;;;;;;6196546;23;20398;-85
2022/10/23 13:21:09;;;;;;;2.23;1.70;;;19.10;99.90;;;;;;6203826;23;20551;-85
2022/10/23 13:35:30;;;;;;;;;;;;;;;;;;;;;
2022/10/23 13:51:51;;;;;;;;;;;;;;;;;;;;;
2022/10/23 14:06:40;;;;;;;;;;;;;;;;;;;;;
2022/10/23 15:05:45;;;;;;;3.20;2.00;;;19.50;99.90;;;;;;6088641;23;20520;-84
2022/10/23 15:13:21;;;;;;;2.90;2.40;;;19.40;99.90;;;;;;6020705;23;20454;-86
2022/10/23 15:17:07;;;;;;;5.53;2.67;;;19.50;99.90;;;;;;5995272;24;20440;-83
2022/10/23 16:01:08;;;;;;;5.17;2.30;;;19.50;99.90;;;;;;6213203;22;20800;-86
2022/10/23 16:23:50;;;;;;;5.03;2.27;;;19.50;99.90;;;;;;6066783;23;20417;-84
2022/10/23 16:51:31;;;;;;;6.00;3.70;;;19.00;99.90;;;;;;6070836;23;20420;-83
2022/10/23 16:55:04;;;;;;;6.87;3.70;;;19.10;99.90;;;;;;6142006;23;20396;-85
2022/10/23 16:58:28;;;;;;;7.40;3.40;;;19.30;99.90;;;;;;6184311;23;20437;-85
2022/10/23 17:02:09;;;;;;;13.07;4.70;;;19.30;99.90;;;;;;6216262;23;20527;-85
2022/10/23 17:40:36;;;;;;;4.60;3.40;;;18.60;99.90;;;;;;6200826;23;21094;-87
2022/10/23 17:44:35;;;;;;;;;;;;;;;;;;;;;
2022/10/23 17:47:46;;;;;;;3.50;2.60;;;18.50;99.90;;;;;;6007053;23;20965;-86
2022/10/23 17:55:08;;;;;;;5.53;3.33;;;18.20;99.90;;;;;;5949420;24;20519;-86
2022/10/23 17:58:36;;;;;;;4.80;2.57;;;18.30;99.90;;;;;;5895965;24;20509;-85
2022/10/23 18:02:02;;;;;;;3.80;3.00;;;18.20;99.90;;;;;;5896704;24;20438;-84
2022/10/23 18:06:20;;;;;;;;;;;;;;;;;;;;;
2022/10/23 18:15:54;;;;;;;;;;;;;;;;;;;;;
2022/10/23 18:42:40;;;;;;;;;;;;;;;;;;;;;
2022/10/23 18:53:30;;;;;;;4.53;2.63;;;17.90;99.90;;;;;;6071450;23;20561;-84
2022/10/23 18:57:10;;;;;;;3.60;2.67;;;17.80;99.90;;;;;;6075284;23;20437;-87
2022/10/23 19:03:14;;;;;;;5.03;2.40;;;17.60;99.90;;;;;;6208903;22;20456;-85
2022/10/23 19:07:22;;;;;;;3.37;1.97;;;17.60;99.90;;;;;;6111402;23;20472;-85
2022/10/23 19:24:55;;;;;;;2.63;2.43;;;17.60;99.90;;;;;;6056531;23;20443;-85
2022/10/23 19:36:18;;;;;;;;;;;;;;;;;;;;;
2022/10/23 19:45:36;;;;;;;;;;;;;;;;;;;;;
2022/10/23 19:59:31;;;;;;;2.50;2.30;;;17.20;99.90;;;;;;6101294;23;20420;-82
2022/10/23 20:03:28;;;;;;;3.00;1.90;;;17.20;99.90;;;;;;6053152;23;20448;-84
2022/10/23 20:06:57;;;;;;;;;;;;;;;;;;;;;
2022/10/23 20:10:20;;;;;;;5.33;2.20;;;17.10;99.90;;;;;;6188597;23;20393;-85
2022/10/23 20:13:23;;;;;;;2.37;2.17;;;17.00;99.90;;;;;;6185090;23;20860;-82
2022/10/23 20:16:19;;;;;;;4.53;3.10;;;17.10;99.90;;;;;;6187418;23;20508;-84
2022/10/23 20:19:21;;;;;;;5.57;2.50;;;17.10;99.90;;;;;;6104861;23;20404;-82
2022/10/23 20:46:22;;;;;;;4.73;3.30;;;16.90;99.90;;;;;;6165082;23;20466;-81
2022/10/23 20:49:37;;;;;;;4.17;3.40;;;17.00;99.90;;;;;;6175651;23;20485;-85
2022/10/23 21:00:47;;;;;;;;;;;;;;;;;;;;;
2022/10/23 21:16:43;;;;;;;6.23;3.50;;;17.80;99.90;;;;;;6125030;23;20492;-86
2022/10/23 21:23:32;;;;;;;3.83;2.90;;;17.70;99.90;;;;;;6187929;22;20491;-84
2022/10/23 22:13:28;;;;;;;4.10;2.70;;;17.60;99.90;;;;;;6153621;23;20473;-85
2022/10/23 22:21:03;;;;;;;4.57;3.13;;;17.40;99.90;;;;;;6152443;23;20413;-85
2022/10/23 22:32:41;;;;;;;9.37;3.90;;;17.30;99.90;;;;;;5898040;24;20424;-84
2022/10/23 22:40:42;;;;;;;;;;;;;;;;;;;;;
2022/10/23 22:44:25;;;;;;;6.00;3.33;;;17.20;99.90;;;;;;5868961;24;20411;-85
2022/10/23 22:46:59;;;;;;;8.10;3.73;;;17.20;99.90;;;;;;5804111;24;20498;-83
2022/10/23 22:49:38;;;;;;;9.63;3.40;;;17.20;99.90;;;;;;5832168;24;20437;-83
2022/10/23 22:52:35;;;;;;;8.03;3.87;;;17.20;99.90;;;;;;5822005;24;20426;-84
2022/10/23 22:56:09;;;;;;;6.97;3.43;;;17.10;99.90;;;;;;5811408;24;20402;-85
2022/10/23 22:59:34;;;;;;;4.20;3.00;;;17.00;99.90;;;;;;5919226;24;20422;-84
2022/10/23 23:02:35;;;;;;;7.10;3.17;;;17.10;99.90;;;;;;6038372;23;20437;-84
2022/10/23 23:05:56;;;;;;;4.33;3.10;;;17.00;99.90;;;;;;6119160;23;20383;-83
2022/10/23 23:09:13;;;;;;;7.20;3.40;;;17.10;99.90;;;;;;6142366;23;21174;-84
2022/10/23 23:55:38;;;;;;;6.90;4.13;;;16.90;99.90;;;;;;6150734;23;20497;-85
